Terminal Aerodrome Forecast
Issued by NWS Bismarck, ND

Home | Current Version | Previous Version | Text Only | Print | Product List | Glossary On
Versions: 1 2 3 4 5 6 7 8 9 10 11 12 13 14 15 16 17 18 19 20 21
000
FTUS43 KBIS 221800 AAA
TAFBIS
TAF AMD
KBIS 221851Z 2219/2318 01006KT P6SM OVC007
      TEMPO 2219/2221 4SM BR OVC010
     FM222100 35014KT P6SM OVC011
     FM230000 35018G24KT 1SM -SN BR OVC008=

USA.gov is the U.S. government's official web portal to all federal, state and local government web resources and services.